Derby Field
KLOL : rendu visible

Aérodrome :











RETROUVEZ-NOUS SUR...

 
LOGIN :

S'inscrire | Disclaimer

   EN    FR    IT 

 









Légende :    VFR   VFR Marginal   IFR   IFR Intensif   IFR Très Intensif
Visi : 
Plafond : 
>= 8 km
>= 3000ft
5 à 8 km
1000 à 3000 ft
1500m à 5 km
500 à 1000 ft
800 à 1500m
200 à 500 ft
< 800m
< 200 ft
Symboles :   Orages  Brouillard  Fortes neiges  Fortes précipitations  Vent > 20 kt






- Altitude de l'aérodrome : 3904 ft


KLOL - Derby Field

DERNIER METAR :
  • 171153Z AUTO 08008KT 10SM CLR 00/M05 A3034 RMK AO2 SLP273 T00001050 10044 21028 58001

METARs EXPIRÉS :
  • 171053Z AUTO 03004KT 10SM CLR M02/M06 A3034 RMK AO2 SLP278 T10221061
  • 170953Z AUTO 26003KT 10SM CLR 00/M04 A3035 RMK AO2 SLP275 T00001039

TAF N/A



MET'MAP, la Météo Aéronautique d'un coup d'oeil ! - Copyright ORBIFLY Décembre 2007 - Disclaimer

ORBIFLY MET'MAP TEAM :

Programmation & Développement : Alexandra Zaïnal
Conception & Développement : Baudouin d'Aumeries
Co-Programmation & Développement : Marc-Olivier Méhu
Soutien technique & logistique : Manuel Goepfert

Contact : metmap@orbifly.com




SOURCES & CREDITS :

   NOAA       Earth
Advisory